KBRD

Brainerd Lakes Regional Airport

Brainerd, Minnesota, USA
METAR KBRD 191153Z AUTO 17003KT 4SM HZ CLR M05/M08 A2959 RMK AO2 SLP038 I6000 T10501078 11039 21083 58023
Observed Flight Rules
Dec-19 @ 11:53 UTC (19 minutes ago) Marginal Visual Flight Rules
Wind Visibility Clouds Conditions
170° at 3 knots 4 miles
  • Clear skies
  • Haze
Temperatures Readings
Current -5°C / 23°F
Dewpoint -8°C / 18°F
Humidity 80%
Altimeter 29.59" Hg
Pressure 1003.8 hPa
Elevation 372
METAR KBRD 191153Z AUTO 17003KT 4SM HZ CLR M05/M08 A2959 RMK AO2 SLP038 I6000 T10501078 11039 21083 58023
Observed Flight Rules
Dec-19 @ 11:53 UTC
(19 minutes ago)
MVFR
Wind Visibility
170° at 3 knots 4 miles
Clouds
  • Clear skies
Conditions
  • Haze
Temperature Dewpoint
-5°C / 23°F -8°C / 18°F
Humidity Altimeter Pressure
80% 29.59" Hg 1003.8 hPa